Terminal Aerodrome Forecast
Issued by NWS

Current Version | Previous Version | Text Only | Print | Product List | Glossary Off
Versions: 1 2 3 4 5 6 7 8 9 10 11 12 13 14 15 16 17 18

000
FTUS41 KPBZ 140535
TAFHLG
TAF
KHLG 140535Z 1406/1506 VRB03KT P6SM SCT250
      TEMPO 1410/1413 3SM BR
     FM141600 20005KT P6SM BKN080=

USA.gov is the U.S. government's official web portal to all federal, state and local government web resources and services.